Friday, July 20, 2018, 8:19 PM EDT
Back to Local

KAVP, Wilkes-barre/scranton International

Location: Pittston, PA, United States Lat: 41.333
Local Time: 8:19 PM EDT ( 0:19 GMT) Lon: -75.733
Time Zone: US/Eastern Elev: 961 ft

Show me the last for .
Show Decoded

2018-07-20 19:54 METAR KAVP 202354Z VRB04KT 10SM CLR 24/13 A3008 RMK AO2 SLP179 T02440133 10283
                 20244 55001 =
2018-07-20 18:54 METAR KAVP 202254Z 16004KT 10SM CLR 25/13 A3008 RMK AO2 SLP177 T02500133 =
2018-07-20 17:54 METAR KAVP 202154Z VRB04KT 10SM BKN060 26/13 A3008 RMK AO2 SLP179 T02560133 =
2018-07-20 16:54 METAR KAVP 202054Z VRB05G14KT 10SM FEW065 27/13 A3008 RMK AO2 SLP180 T02720133
                 56013 =
2018-07-20 15:54 METAR KAVP 201954Z 20008KT 10SM FEW060 26/13 A3009 RMK AO2 SLP183 T02610128 =
2018-07-20 14:54 METAR KAVP 201854Z 21007KT 10SM FEW060 28/14 A3011 RMK AO2 SLP187 T02780139 =
2018-07-20 13:54 METAR KAVP 201754Z 18006KT 10SM BKN055 27/13 A3012 RMK AO2 SLP193 T02670128
                 10278 20211 58013 =
2018-07-20 12:54 METAR KAVP 201654Z 21006KT 9SM FEW055 27/13 A3014 RMK AO2 SLP197 T02720133 $ =
2018-07-20 11:54 METAR KAVP 201554Z VRB06KT 8SM CLR 27/13 A3015 RMK AO2 SLP203 T02670128 $ =
2018-07-20 10:54 METAR KAVP 201454Z 27005KT CLR 26/16 A3016 RMK AO2 SLP205 T02560156 58003 $ =
2018-07-20 09:54 METAR KAVP 201354Z VRB03KT 10SM CLR 23/16 A3017 RMK AO2 SLP209 T02330156 =
2018-07-20 08:54 METAR KAVP 201254Z 33003KT 10SM CLR 21/15 A3017 RMK AO2 SLP208 T02110150 =
2018-07-20 07:54 METAR KAVP 201154Z 04005KT 10SM CLR 19/15 A3017 RMK AO2 SLP208 T01890150 10189
                 20139 51008 =
2018-07-20 06:54 METAR KAVP 201054Z 08003KT 10SM CLR 16/14 A3016 RMK AO2 SLP205 T01610139 =
2018-07-20 05:54 METAR KAVP 200954Z 00000KT 10SM CLR 14/13 A3016 RMK AO2 SLP204 T01440133 =
2018-07-20 04:54 METAR KAVP 200854Z 12003KT 10SM CLR 14/13 A3015 RMK AO2 SLP201 T01440133 53004 =
2018-07-20 03:54 METAR KAVP 200754Z 04003KT 10SM CLR 14/12 A3014 RMK AO2 SLP199 T01440122 =
2018-07-20 02:54 METAR KAVP 200654Z VRB03KT 10SM CLR 16/12 A3014 RMK AO2 SLP198 T01610117 =
2018-07-20 01:54 METAR KAVP 200554Z 10007KT 10SM CLR 16/12 A3013 RMK AO2 SLP197 T01560117 10256
                 20150 51003 =
2018-07-20 00:54 METAR KAVP 200454Z 11007KT 10SM CLR 16/12 A3013 RMK AO2 SLP196 T01610117
                 402720100 =
2018-07-19 23:54 METAR KAVP 200354Z 10007KT 10SM CLR 17/12 A3013 RMK AO2 SLP196 T01670117 =
2018-07-19 22:54 METAR KAVP 200254Z 10007KT 10SM CLR 18/13 A3012 RMK AO2 SLP195 T01780128 51014 =
2018-07-19 21:54 METAR KAVP 200154Z 10007KT 10SM CLR 19/12 A3012 RMK AO2 SLP192 T01890122 =
2018-07-19 20:54 METAR KAVP 200054Z 13003KT 10SM CLR 19/14 A3009 RMK AO2 SLP185 T01940139 =

Support USWX by starting your Amazon purchase here.